sensor_id;sensor_type;location;lat;lon;timestamp;P1;durP1;ratioP1;P2;durP2;ratioP2
57573;SDS011;68988;49.000;21.242;2024-03-06T00:01:31;1.85;;;1.75;;
57573;SDS011;68988;49.000;21.242;2024-03-06T00:03:56;2.20;;;2.10;;
57573;SDS011;68988;49.000;21.242;2024-03-06T00:06:22;1.92;;;1.83;;
57573;SDS011;68988;49.000;21.242;2024-03-06T00:08:49;3.42;;;1.77;;
57573;SDS011;68988;49.000;21.242;2024-03-06T00:11:14;1.75;;;1.65;;
57573;SDS011;68988;49.000;21.242;2024-03-06T00:13:40;1.90;;;1.80;;
57573;SDS011;68988;49.000;21.242;2024-03-06T00:16:05;2.05;;;1.95;;
57573;SDS011;68988;49.000;21.242;2024-03-06T00:18:31;1.70;;;1.60;;
57573;SDS011;68988;49.000;21.242;2024-03-06T00:20:56;1.80;;;1.70;;
57573;SDS011;68988;49.000;21.242;2024-03-06T00:23:21;1.80;;;1.70;;
57573;SDS011;68988;49.000;21.242;2024-03-06T00:25:47;1.95;;;1.85;;
57573;SDS011;68988;49.000;21.242;2024-03-06T00:28:12;2.22;;;2.03;;
57573;SDS011;68988;49.000;21.242;2024-03-06T00:30:37;4.43;;;2.00;;
57573;SDS011;68988;49.000;21.242;2024-03-06T00:33:03;2.00;;;1.90;;
57573;SDS011;68988;49.000;21.242;2024-03-06T00:35:28;1.80;;;1.70;;
57573;SDS011;68988;49.000;21.242;2024-03-06T00:37:54;2.03;;;1.92;;
57573;SDS011;68988;49.000;21.242;2024-03-06T00:40:19;1.85;;;1.75;;
57573;SDS011;68988;49.000;21.242;2024-03-06T00:42:45;1.70;;;1.60;;
57573;SDS011;68988;49.000;21.242;2024-03-06T00:45:10;1.48;;;1.40;;
57573;SDS011;68988;49.000;21.242;2024-03-06T00:47:36;1.92;;;1.83;;
57573;SDS011;68988;49.000;21.242;2024-03-06T00:50:01;1.52;;;1.42;;
57573;SDS011;68988;49.000;21.242;2024-03-06T00:52:27;2.10;;;1.90;;
57573;SDS011;68988;49.000;21.242;2024-03-06T00:54:52;8.65;;;2.05;;
57573;SDS011;68988;49.000;21.242;2024-03-06T00:57:17;3.53;;;1.80;;
57573;SDS011;68988;49.000;21.242;2024-03-06T00:59:43;1.92;;;1.70;;
57573;SDS011;68988;49.000;21.242;2024-03-06T01:02:08;1.98;;;1.80;;
57573;SDS011;68988;49.000;21.242;2024-03-06T01:04:33;1.92;;;1.83;;
57573;SDS011;68988;49.000;21.242;2024-03-06T01:06:59;2.20;;;1.63;;
57573;SDS011;68988;49.000;21.242;2024-03-06T01:09:24;1.90;;;1.80;;
57573;SDS011;68988;49.000;21.242;2024-03-06T01:11:49;1.95;;;1.85;;
57573;SDS011;68988;49.000;21.242;2024-03-06T01:14:15;1.88;;;1.77;;
57573;SDS011;68988;49.000;21.242;2024-03-06T01:16:41;1.70;;;1.60;;
57573;SDS011;68988;49.000;21.242;2024-03-06T01:19:07;1.75;;;1.65;;
57573;SDS011;68988;49.000;21.242;2024-03-06T01:21:32;1.83;;;1.73;;
57573;SDS011;68988;49.000;21.242;2024-03-06T01:23:59;1.35;;;1.30;;
57573;SDS011;68988;49.000;21.242;2024-03-06T01:26:25;1.90;;;1.80;;
57573;SDS011;68988;49.000;21.242;2024-03-06T01:28:50;1.70;;;1.60;;
57573;SDS011;68988;49.000;21.242;2024-03-06T01:31:15;1.95;;;1.85;;
57573;SDS011;68988;49.000;21.242;2024-03-06T01:33:41;1.70;;;1.60;;
57573;SDS011;68988;49.000;21.242;2024-03-06T01:36:06;1.70;;;1.60;;
57573;SDS011;68988;49.000;21.242;2024-03-06T01:38:32;1.73;;;1.63;;
57573;SDS011;68988;49.000;21.242;2024-03-06T01:40:57;1.60;;;1.50;;
57573;SDS011;68988;49.000;21.242;2024-03-06T01:43:25;1.67;;;1.58;;
57573;SDS011;68988;49.000;21.242;2024-03-06T01:45:51;1.58;;;1.48;;
57573;SDS011;68988;49.000;21.242;2024-03-06T01:48:19;1.90;;;1.80;;
57573;SDS011;68988;49.000;21.242;2024-03-06T01:50:48;1.70;;;1.60;;
57573;SDS011;68988;49.000;21.242;2024-03-06T01:53:14;1.70;;;1.60;;
57573;SDS011;68988;49.000;21.242;2024-03-06T01:55:41;1.85;;;1.75;;
57573;SDS011;68988;49.000;21.242;2024-03-06T01:58:06;1.70;;;1.60;;
57573;SDS011;68988;49.000;21.242;2024-03-06T02:00:33;1.45;;;1.35;;
57573;SDS011;68988;49.000;21.242;2024-03-06T02:02:59;1.90;;;1.80;;
57573;SDS011;68988;49.000;21.242;2024-03-06T02:05:26;1.88;;;1.77;;
57573;SDS011;68988;49.000;21.242;2024-03-06T02:07:53;1.67;;;1.58;;
57573;SDS011;68988;49.000;21.242;2024-03-06T02:10:19;1.88;;;1.77;;
57573;SDS011;68988;49.000;21.242;2024-03-06T02:12:44;1.88;;;1.77;;
57573;SDS011;68988;49.000;21.242;2024-03-06T02:15:10;1.70;;;1.60;;
57573;SDS011;68988;49.000;21.242;2024-03-06T02:17:37;1.80;;;1.70;;
57573;SDS011;68988;49.000;21.242;2024-03-06T02:20:03;1.65;;;1.55;;
57573;SDS011;68988;49.000;21.242;2024-03-06T02:22:31;2.00;;;1.90;;
57573;SDS011;68988;49.000;21.242;2024-03-06T02:24:57;1.85;;;1.75;;
57573;SDS011;68988;49.000;21.242;2024-03-06T02:27:23;1.90;;;1.80;;
57573;SDS011;68988;49.000;21.242;2024-03-06T02:29:48;1.60;;;1.50;;
57573;SDS011;68988;49.000;21.242;2024-03-06T02:32:13;1.40;;;1.40;;
57573;SDS011;68988;49.000;21.242;2024-03-06T02:34:39;1.70;;;1.60;;
57573;SDS011;68988;49.000;21.242;2024-03-06T02:37:05;1.90;;;1.80;;
57573;SDS011;68988;49.000;21.242;2024-03-06T02:39:31;1.45;;;1.40;;
57573;SDS011;68988;49.000;21.242;2024-03-06T02:41:56;1.65;;;1.55;;
57573;SDS011;68988;49.000;21.242;2024-03-06T02:44:22;2.00;;;1.90;;
57573;SDS011;68988;49.000;21.242;2024-03-06T02:46:47;1.75;;;1.65;;
57573;SDS011;68988;49.000;21.242;2024-03-06T02:49:14;1.98;;;1.88;;
57573;SDS011;68988;49.000;21.242;2024-03-06T02:51:40;1.77;;;1.67;;
57573;SDS011;68988;49.000;21.242;2024-03-06T02:54:05;2.00;;;1.90;;
57573;SDS011;68988;49.000;21.242;2024-03-06T02:56:31;1.80;;;1.70;;
57573;SDS011;68988;49.000;21.242;2024-03-06T02:58:56;1.58;;;1.50;;
57573;SDS011;68988;49.000;21.242;2024-03-06T03:01:22;1.83;;;1.73;;
57573;SDS011;68988;49.000;21.242;2024-03-06T03:03:48;1.88;;;1.77;;
57573;SDS011;68988;49.000;21.242;2024-03-06T03:06:14;1.73;;;1.63;;
57573;SDS011;68988;49.000;21.242;2024-03-06T03:08:39;1.73;;;1.63;;
57573;SDS011;68988;49.000;21.242;2024-03-06T03:11:04;1.90;;;1.80;;
57573;SDS011;68988;49.000;21.242;2024-03-06T03:13:30;1.80;;;1.70;;
57573;SDS011;68988;49.000;21.242;2024-03-06T03:15:56;1.75;;;1.65;;
57573;SDS011;68988;49.000;21.242;2024-03-06T03:18:21;1.92;;;1.83;;
57573;SDS011;68988;49.000;21.242;2024-03-06T03:20:47;1.80;;;1.70;;
57573;SDS011;68988;49.000;21.242;2024-03-06T03:23:12;1.83;;;1.73;;
57573;SDS011;68988;49.000;21.242;2024-03-06T03:25:40;1.73;;;1.63;;
57573;SDS011;68988;49.000;21.242;2024-03-06T03:28:06;1.70;;;1.60;;
57573;SDS011;68988;49.000;21.242;2024-03-06T03:30:31;1.77;;;1.67;;
57573;SDS011;68988;49.000;21.242;2024-03-06T03:32:57;1.70;;;1.60;;
57573;SDS011;68988;49.000;21.242;2024-03-06T03:35:23;1.98;;;1.88;;
57573;SDS011;68988;49.000;21.242;2024-03-06T03:37:53;1.90;;;1.80;;
57573;SDS011;68988;49.000;21.242;2024-03-06T03:40:18;1.80;;;1.70;;
57573;SDS011;68988;49.000;21.242;2024-03-06T03:42:44;2.28;;;1.70;;
57573;SDS011;68988;49.000;21.242;2024-03-06T03:45:09;1.95;;;1.80;;
57573;SDS011;68988;49.000;21.242;2024-03-06T03:47:35;1.85;;;1.75;;
57573;SDS011;68988;49.000;21.242;2024-03-06T03:50:00;2.15;;;2.05;;
57573;SDS011;68988;49.000;21.242;2024-03-06T03:52:26;1.90;;;1.80;;
57573;SDS011;68988;49.000;21.242;2024-03-06T03:54:51;1.70;;;1.60;;
57573;SDS011;68988;49.000;21.242;2024-03-06T03:57:16;2.00;;;1.90;;
57573;SDS011;68988;49.000;21.242;2024-03-06T03:59:42;2.03;;;1.92;;
57573;SDS011;68988;49.000;21.242;2024-03-06T04:02:08;1.83;;;1.73;;
57573;SDS011;68988;49.000;21.242;2024-03-06T04:04:33;1.80;;;1.70;;
57573;SDS011;68988;49.000;21.242;2024-03-06T04:06:59;1.65;;;1.55;;
57573;SDS011;68988;49.000;21.242;2024-03-06T04:09:26;1.77;;;1.67;;
57573;SDS011;68988;49.000;21.242;2024-03-06T04:11:52;1.92;;;1.83;;
57573;SDS011;68988;49.000;21.242;2024-03-06T04:14:18;1.90;;;1.80;;
57573;SDS011;68988;49.000;21.242;2024-03-06T04:16:45;1.90;;;1.80;;
57573;SDS011;68988;49.000;21.242;2024-03-06T04:19:10;1.85;;;1.75;;
57573;SDS011;68988;49.000;21.242;2024-03-06T04:21:40;2.15;;;2.05;;
57573;SDS011;68988;49.000;21.242;2024-03-06T04:24:08;1.88;;;1.77;;
57573;SDS011;68988;49.000;21.242;2024-03-06T04:26:34;1.58;;;1.50;;
57573;SDS011;68988;49.000;21.242;2024-03-06T04:29:00;1.80;;;1.70;;
57573;SDS011;68988;49.000;21.242;2024-03-06T04:31:25;1.63;;;1.63;;
57573;SDS011;68988;49.000;21.242;2024-03-06T04:33:50;1.58;;;1.48;;
57573;SDS011;68988;49.000;21.242;2024-03-06T04:36:16;1.70;;;1.60;;
57573;SDS011;68988;49.000;21.242;2024-03-06T04:38:42;2.08;;;1.98;;
57573;SDS011;68988;49.000;21.242;2024-03-06T04:41:07;2.03;;;1.92;;
57573;SDS011;68988;49.000;21.242;2024-03-06T04:43:32;1.80;;;1.70;;
57573;SDS011;68988;49.000;21.242;2024-03-06T04:45:58;2.63;;;1.90;;
57573;SDS011;68988;49.000;21.242;2024-03-06T04:48:23;1.80;;;1.70;;
57573;SDS011;68988;49.000;21.242;2024-03-06T04:50:48;1.73;;;1.63;;
57573;SDS011;68988;49.000;21.242;2024-03-06T04:53:14;1.77;;;1.67;;
57573;SDS011;68988;49.000;21.242;2024-03-06T04:55:39;1.98;;;1.88;;
57573;SDS011;68988;49.000;21.242;2024-03-06T04:58:05;1.75;;;1.63;;
57573;SDS011;68988;49.000;21.242;2024-03-06T05:00:31;2.00;;;1.90;;
57573;SDS011;68988;49.000;21.242;2024-03-06T05:02:56;1.88;;;1.77;;
57573;SDS011;68988;49.000;21.242;2024-03-06T05:05:22;1.92;;;1.83;;
57573;SDS011;68988;49.000;21.242;2024-03-06T05:07:48;1.80;;;1.70;;
57573;SDS011;68988;49.000;21.242;2024-03-06T05:10:14;2.10;;;2.00;;
57573;SDS011;68988;49.000;21.242;2024-03-06T05:12:41;1.85;;;1.75;;
57573;SDS011;68988;49.000;21.242;2024-03-06T05:15:06;1.90;;;1.80;;
57573;SDS011;68988;49.000;21.242;2024-03-06T05:17:33;1.95;;;1.85;;
57573;SDS011;68988;49.000;21.242;2024-03-06T05:19:59;1.70;;;1.60;;
57573;SDS011;68988;49.000;21.242;2024-03-06T05:22:24;1.80;;;1.70;;
57573;SDS011;68988;49.000;21.242;2024-03-06T05:24:51;1.63;;;1.52;;
57573;SDS011;68988;49.000;21.242;2024-03-06T05:27:17;1.60;;;1.50;;
57573;SDS011;68988;49.000;21.242;2024-03-06T05:29:43;1.83;;;1.73;;
57573;SDS011;68988;49.000;21.242;2024-03-06T05:32:09;1.80;;;1.70;;
57573;SDS011;68988;49.000;21.242;2024-03-06T05:34:35;1.90;;;1.80;;
57573;SDS011;68988;49.000;21.242;2024-03-06T05:37:01;1.80;;;1.70;;
57573;SDS011;68988;49.000;21.242;2024-03-06T05:39:29;2.03;;;1.92;;
57573;SDS011;68988;49.000;21.242;2024-03-06T05:41:54;1.80;;;1.70;;
57573;SDS011;68988;49.000;21.242;2024-03-06T05:44:20;1.30;;;1.30;;
57573;SDS011;68988;49.000;21.242;2024-03-06T05:46:46;2.50;;;1.98;;
57573;SDS011;68988;49.000;21.242;2024-03-06T05:49:12;8.80;;;8.00;;
57573;SDS011;68988;49.000;21.242;2024-03-06T05:51:39;9.45;;;8.55;;
57573;SDS011;68988;49.000;21.242;2024-03-06T05:54:04;17.15;;;9.57;;
57573;SDS011;68988;49.000;21.242;2024-03-06T05:56:33;8.00;;;7.30;;
57573;SDS011;68988;49.000;21.242;2024-03-06T05:58:58;8.93;;;6.80;;
57573;SDS011;68988;49.000;21.242;2024-03-06T06:01:26;6.80;;;6.03;;
57573;SDS011;68988;49.000;21.242;2024-03-06T06:03:51;7.53;;;5.93;;
57573;SDS011;68988;49.000;21.242;2024-03-06T06:06:17;7.05;;;6.35;;
57573;SDS011;68988;49.000;21.242;2024-03-06T06:08:44;7.80;;;5.65;;
57573;SDS011;68988;49.000;21.242;2024-03-06T06:11:10;5.60;;;5.20;;
57573;SDS011;68988;49.000;21.242;2024-03-06T06:13:36;6.05;;;5.65;;
57573;SDS011;68988;49.000;21.242;2024-03-06T06:16:01;8.48;;;5.32;;
57573;SDS011;68988;49.000;21.242;2024-03-06T06:18:29;7.35;;;5.30;;
57573;SDS011;68988;49.000;21.242;2024-03-06T06:20:56;10.48;;;5.57;;
57573;SDS011;68988;49.000;21.242;2024-03-06T06:23:22;5.47;;;4.63;;
57573;SDS011;68988;49.000;21.242;2024-03-06T06:25:47;4.70;;;4.40;;
57573;SDS011;68988;49.000;21.242;2024-03-06T06:28:13;5.47;;;4.72;;
57573;SDS011;68988;49.000;21.242;2024-03-06T06:30:38;5.53;;;4.85;;
57573;SDS011;68988;49.000;21.242;2024-03-06T06:33:04;5.88;;;4.70;;
57573;SDS011;68988;49.000;21.242;2024-03-06T06:35:30;5.30;;;4.90;;
57573;SDS011;68988;49.000;21.242;2024-03-06T06:37:55;5.00;;;4.60;;
57573;SDS011;68988;49.000;21.242;2024-03-06T06:40:21;4.53;;;4.22;;
57573;SDS011;68988;49.000;21.242;2024-03-06T06:42:47;5.35;;;4.65;;
57573;SDS011;68988;49.000;21.242;2024-03-06T06:45:17;4.72;;;4.32;;
57573;SDS011;68988;49.000;21.242;2024-03-06T06:47:43;4.90;;;4.30;;
57573;SDS011;68988;49.000;21.242;2024-03-06T06:50:09;15.38;;;4.72;;
57573;SDS011;68988;49.000;21.242;2024-03-06T06:52:36;10.00;;;4.40;;
57573;SDS011;68988;49.000;21.242;2024-03-06T06:55:06;5.03;;;4.47;;
57573;SDS011;68988;49.000;21.242;2024-03-06T06:57:32;5.00;;;4.60;;
57573;SDS011;68988;49.000;21.242;2024-03-06T06:59:58;15.88;;;4.72;;
57573;SDS011;68988;49.000;21.242;2024-03-06T07:02:24;15.50;;;4.68;;
57573;SDS011;68988;49.000;21.242;2024-03-06T07:04:49;5.40;;;4.47;;
57573;SDS011;68988;49.000;21.242;2024-03-06T07:07:15;6.40;;;4.03;;
57573;SDS011;68988;49.000;21.242;2024-03-06T07:09:40;7.03;;;4.70;;
57573;SDS011;68988;49.000;21.242;2024-03-06T07:12:06;8.63;;;4.35;;
57573;SDS011;68988;49.000;21.242;2024-03-06T07:14:32;40.88;;;5.75;;
57573;SDS011;68988;49.000;21.242;2024-03-06T07:16:58;42.30;;;6.07;;
57573;SDS011;68988;49.000;21.242;2024-03-06T07:19:24;30.27;;;5.85;;
57573;SDS011;68988;49.000;21.242;2024-03-06T07:21:49;42.22;;;6.45;;
57573;SDS011;68988;49.000;21.242;2024-03-06T07:24:15;57.28;;;6.72;;
57573;SDS011;68988;49.000;21.242;2024-03-06T07:26:40;61.80;;;7.18;;
57573;SDS011;68988;49.000;21.242;2024-03-06T07:29:05;40.35;;;6.15;;
57573;SDS011;68988;49.000;21.242;2024-03-06T07:31:38;40.93;;;6.07;;
57573;SDS011;68988;49.000;21.242;2024-03-06T07:34:04;23.63;;;5.38;;
57573;SDS011;68988;49.000;21.242;2024-03-06T07:36:31;34.65;;;5.85;;
57573;SDS011;68988;49.000;21.242;2024-03-06T07:38:57;27.10;;;5.47;;
57573;SDS011;68988;49.000;21.242;2024-03-06T07:41:22;21.48;;;6.05;;
57573;SDS011;68988;49.000;21.242;2024-03-06T07:43:48;26.70;;;6.00;;
57573;SDS011;68988;49.000;21.242;2024-03-06T07:46:13;23.73;;;5.65;;
57573;SDS011;68988;49.000;21.242;2024-03-06T07:48:42;23.55;;;5.60;;
57573;SDS011;68988;49.000;21.242;2024-03-06T07:51:11;22.40;;;5.28;;
57573;SDS011;68988;49.000;21.242;2024-03-06T07:53:37;14.90;;;5.65;;
57573;SDS011;68988;49.000;21.242;2024-03-06T07:56:02;11.70;;;5.38;;
57573;SDS011;68988;49.000;21.242;2024-03-06T07:58:28;18.88;;;5.97;;
57573;SDS011;68988;49.000;21.242;2024-03-06T08:00:53;20.02;;;5.28;;
57573;SDS011;68988;49.000;21.242;2024-03-06T08:03:21;15.65;;;5.05;;
57573;SDS011;68988;49.000;21.242;2024-03-06T08:05:49;16.38;;;4.72;;
57573;SDS011;68988;49.000;21.242;2024-03-06T08:08:16;20.05;;;5.35;;
57573;SDS011;68988;49.000;21.242;2024-03-06T08:10:41;17.88;;;4.68;;
57573;SDS011;68988;49.000;21.242;2024-03-06T08:13:07;13.88;;;5.30;;
57573;SDS011;68988;49.000;21.242;2024-03-06T08:15:32;12.27;;;5.20;;
57573;SDS011;68988;49.000;21.242;2024-03-06T08:17:57;16.13;;;5.47;;
57573;SDS011;68988;49.000;21.242;2024-03-06T08:20:23;17.95;;;5.07;;
57573;SDS011;68988;49.000;21.242;2024-03-06T08:22:48;11.40;;;5.35;;
57573;SDS011;68988;49.000;21.242;2024-03-06T08:25:14;10.82;;;4.93;;
57573;SDS011;68988;49.000;21.242;2024-03-06T08:27:40;10.77;;;5.07;;
57573;SDS011;68988;49.000;21.242;2024-03-06T08:30:06;14.05;;;4.80;;
57573;SDS011;68988;49.000;21.242;2024-03-06T08:32:33;11.32;;;4.90;;
57573;SDS011;68988;49.000;21.242;2024-03-06T08:35:08;14.57;;;4.47;;
57573;SDS011;68988;49.000;21.242;2024-03-06T08:37:38;13.93;;;4.90;;
57573;SDS011;68988;49.000;21.242;2024-03-06T08:40:04;9.57;;;4.72;;
57573;SDS011;68988;49.000;21.242;2024-03-06T08:42:35;14.05;;;4.80;;
57573;SDS011;68988;49.000;21.242;2024-03-06T08:45:01;21.10;;;4.70;;
57573;SDS011;68988;49.000;21.242;2024-03-06T08:47:27;10.48;;;4.28;;
57573;SDS011;68988;49.000;21.242;2024-03-06T08:49:53;13.82;;;4.47;;
57573;SDS011;68988;49.000;21.242;2024-03-06T08:52:19;9.93;;;4.90;;
57573;SDS011;68988;49.000;21.242;2024-03-06T08:54:45;11.23;;;5.03;;
57573;SDS011;68988;49.000;21.242;2024-03-06T08:57:11;14.40;;;4.55;;
57573;SDS011;68988;49.000;21.242;2024-03-06T08:59:37;17.15;;;4.55;;
57573;SDS011;68988;49.000;21.242;2024-03-06T09:02:15;9.73;;;4.45;;
57573;SDS011;68988;49.000;21.242;2024-03-06T09:04:43;15.50;;;4.40;;
57573;SDS011;68988;49.000;21.242;2024-03-06T09:07:09;13.05;;;4.50;;
57573;SDS011;68988;49.000;21.242;2024-03-06T09:09:35;16.83;;;4.50;;
57573;SDS011;68988;49.000;21.242;2024-03-06T09:12:02;26.92;;;4.63;;
57573;SDS011;68988;49.000;21.242;2024-03-06T09:14:30;19.90;;;4.45;;
57573;SDS011;68988;49.000;21.242;2024-03-06T09:16:55;22.80;;;4.82;;
57573;SDS011;68988;49.000;21.242;2024-03-06T09:19:20;18.45;;;5.13;;
57573;SDS011;68988;49.000;21.242;2024-03-06T09:21:47;15.27;;;4.55;;
57573;SDS011;68988;49.000;21.242;2024-03-06T09:24:13;27.35;;;4.85;;
57573;SDS011;68988;49.000;21.242;2024-03-06T09:26:39;16.55;;;4.18;;
57573;SDS011;68988;49.000;21.242;2024-03-06T09:29:04;13.18;;;4.32;;
57573;SDS011;68988;49.000;21.242;2024-03-06T09:31:29;14.52;;;4.38;;
57573;SDS011;68988;49.000;21.242;2024-03-06T09:33:55;22.80;;;4.65;;
57573;SDS011;68988;49.000;21.242;2024-03-06T09:36:20;17.60;;;4.32;;
57573;SDS011;68988;49.000;21.242;2024-03-06T09:38:46;22.17;;;4.47;;
57573;SDS011;68988;49.000;21.242;2024-03-06T09:41:11;19.75;;;4.28;;
57573;SDS011;68988;49.000;21.242;2024-03-06T09:43:36;17.65;;;4.80;;
57573;SDS011;68988;49.000;21.242;2024-03-06T09:46:02;13.45;;;4.78;;
57573;SDS011;68988;49.000;21.242;2024-03-06T09:48:29;16.17;;;3.75;;
57573;SDS011;68988;49.000;21.242;2024-03-06T09:50:56;10.35;;;4.30;;
57573;SDS011;68988;49.000;21.242;2024-03-06T09:53:25;11.73;;;4.10;;
57573;SDS011;68988;49.000;21.242;2024-03-06T09:55:51;23.88;;;4.80;;
57573;SDS011;68988;49.000;21.242;2024-03-06T09:58:17;7.60;;;4.38;;
57573;SDS011;68988;49.000;21.242;2024-03-06T10:00:42;28.15;;;4.07;;
57573;SDS011;68988;49.000;21.242;2024-03-06T10:03:09;9.95;;;4.05;;
57573;SDS011;68988;49.000;21.242;2024-03-06T10:05:36;13.27;;;4.35;;
57573;SDS011;68988;49.000;21.242;2024-03-06T10:08:02;8.63;;;3.70;;
57573;SDS011;68988;49.000;21.242;2024-03-06T10:10:29;5.15;;;3.53;;
57573;SDS011;68988;49.000;21.242;2024-03-06T10:12:55;11.32;;;3.88;;
57573;SDS011;68988;49.000;21.242;2024-03-06T10:15:25;16.30;;;4.43;;
57573;SDS011;68988;49.000;21.242;2024-03-06T10:18:02;9.65;;;4.82;;
57573;SDS011;68988;49.000;21.242;2024-03-06T10:20:35;13.15;;;4.13;;
57573;SDS011;68988;49.000;21.242;2024-03-06T10:23:00;10.32;;;4.60;;
57573;SDS011;68988;49.000;21.242;2024-03-06T10:25:26;10.18;;;4.38;;
57573;SDS011;68988;49.000;21.242;2024-03-06T10:28:05;8.18;;;4.22;;
57573;SDS011;68988;49.000;21.242;2024-03-06T10:30:38;10.75;;;4.40;;
57573;SDS011;68988;49.000;21.242;2024-03-06T10:33:07;14.98;;;4.82;;
57573;SDS011;68988;49.000;21.242;2024-03-06T10:35:33;13.05;;;4.88;;
57573;SDS011;68988;49.000;21.242;2024-03-06T10:38:00;10.20;;;4.95;;
57573;SDS011;68988;49.000;21.242;2024-03-06T10:40:27;9.40;;;4.82;;
57573;SDS011;68988;49.000;21.242;2024-03-06T10:42:56;11.30;;;4.70;;
57573;SDS011;68988;49.000;21.242;2024-03-06T10:45:23;5.65;;;4.35;;
57573;SDS011;68988;49.000;21.242;2024-03-06T10:47:59;7.80;;;5.15;;
57573;SDS011;68988;49.000;21.242;2024-03-06T10:50:27;15.13;;;5.05;;
57573;SDS011;68988;49.000;21.242;2024-03-06T10:52:55;21.00;;;5.40;;
57573;SDS011;68988;49.000;21.242;2024-03-06T10:55:22;45.50;;;5.82;;
57573;SDS011;68988;49.000;21.242;2024-03-06T10:57:49;27.85;;;5.07;;
57573;SDS011;68988;49.000;21.242;2024-03-06T11:00:17;36.05;;;5.68;;
57573;SDS011;68988;49.000;21.242;2024-03-06T11:02:46;23.95;;;5.68;;
57573;SDS011;68988;49.000;21.242;2024-03-06T11:05:15;8.60;;;4.75;;
57573;SDS011;68988;49.000;21.242;2024-03-06T11:07:41;25.83;;;5.43;;
57573;SDS011;68988;49.000;21.242;2024-03-06T11:10:08;9.32;;;4.72;;
57573;SDS011;68988;49.000;21.242;2024-03-06T11:12:41;14.65;;;4.88;;
57573;SDS011;68988;49.000;21.242;2024-03-06T11:15:13;20.90;;;5.50;;
57573;SDS011;68988;49.000;21.242;2024-03-06T11:17:44;10.00;;;4.80;;
57573;SDS011;68988;49.000;21.242;2024-03-06T11:20:13;17.67;;;5.10;;
57573;SDS011;68988;49.000;21.242;2024-03-06T11:28:12;18.20;;;4.72;;
57573;SDS011;68988;49.000;21.242;2024-03-06T11:30:59;14.88;;;5.53;;
57573;SDS011;68988;49.000;21.242;2024-03-06T11:41:12;15.38;;;5.55;;
57573;SDS011;68988;49.000;21.242;2024-03-06T11:43:44;11.85;;;4.90;;
57573;SDS011;68988;49.000;21.242;2024-03-06T11:46:09;11.20;;;5.60;;
57573;SDS011;68988;49.000;21.242;2024-03-06T11:48:38;8.20;;;5.20;;
57573;SDS011;68988;49.000;21.242;2024-03-06T11:51:05;7.85;;;4.90;;
57573;SDS011;68988;49.000;21.242;2024-03-06T11:53:30;15.15;;;5.18;;
57573;SDS011;68988;49.000;21.242;2024-03-06T11:55:58;8.10;;;5.05;;
57573;SDS011;68988;49.000;21.242;2024-03-06T11:58:24;10.98;;;5.50;;
57573;SDS011;68988;49.000;21.242;2024-03-06T12:00:49;10.13;;;5.25;;
57573;SDS011;68988;49.000;21.242;2024-03-06T12:03:15;13.68;;;5.82;;
57573;SDS011;68988;49.000;21.242;2024-03-06T12:05:42;11.75;;;5.47;;
57573;SDS011;68988;49.000;21.242;2024-03-06T12:08:07;14.82;;;5.60;;
57573;SDS011;68988;49.000;21.242;2024-03-06T12:10:36;10.90;;;5.35;;
57573;SDS011;68988;49.000;21.242;2024-03-06T12:13:02;14.38;;;5.57;;
57573;SDS011;68988;49.000;21.242;2024-03-06T12:15:28;8.43;;;5.15;;
57573;SDS011;68988;49.000;21.242;2024-03-06T12:17:54;7.65;;;5.32;;
57573;SDS011;68988;49.000;21.242;2024-03-06T12:20:19;16.40;;;5.20;;
57573;SDS011;68988;49.000;21.242;2024-03-06T12:22:48;13.98;;;5.38;;
57573;SDS011;68988;49.000;21.242;2024-03-06T12:25:23;13.23;;;4.60;;
57573;SDS011;68988;49.000;21.242;2024-03-06T12:27:50;5.15;;;4.65;;
57573;SDS011;68988;49.000;21.242;2024-03-06T12:30:17;17.13;;;5.45;;
57573;SDS011;68988;49.000;21.242;2024-03-06T12:33:04;12.48;;;4.90;;
57573;SDS011;68988;49.000;21.242;2024-03-06T12:35:29;10.00;;;5.35;;
57573;SDS011;68988;49.000;21.242;2024-03-06T12:37:55;18.67;;;5.53;;
57573;SDS011;68988;49.000;21.242;2024-03-06T12:40:21;6.18;;;5.47;;
57573;SDS011;68988;49.000;21.242;2024-03-06T12:42:47;10.82;;;4.90;;
57573;SDS011;68988;49.000;21.242;2024-03-06T12:45:14;10.60;;;4.80;;
57573;SDS011;68988;49.000;21.242;2024-03-06T12:47:40;8.85;;;4.70;;
57573;SDS011;68988;49.000;21.242;2024-03-06T12:50:06;7.88;;;5.53;;
57573;SDS011;68988;49.000;21.242;2024-03-06T12:52:33;8.50;;;4.75;;
57573;SDS011;68988;49.000;21.242;2024-03-06T12:54:59;8.43;;;4.45;;
57573;SDS011;68988;49.000;21.242;2024-03-06T12:57:25;8.48;;;4.55;;
57573;SDS011;68988;49.000;21.242;2024-03-06T12:59:50;9.85;;;3.83;;
57573;SDS011;68988;49.000;21.242;2024-03-06T13:02:16;6.88;;;4.22;;
57573;SDS011;68988;49.000;21.242;2024-03-06T13:04:41;9.63;;;4.88;;
57573;SDS011;68988;49.000;21.242;2024-03-06T13:07:06;4.72;;;4.25;;
57573;SDS011;68988;49.000;21.242;2024-03-06T13:09:32;7.32;;;4.50;;
57573;SDS011;68988;49.000;21.242;2024-03-06T13:11:57;4.97;;;4.32;;
57573;SDS011;68988;49.000;21.242;2024-03-06T13:14:22;6.30;;;4.20;;
57573;SDS011;68988;49.000;21.242;2024-03-06T13:16:47;8.98;;;4.50;;
57573;SDS011;68988;49.000;21.242;2024-03-06T13:19:13;13.68;;;4.22;;
57573;SDS011;68988;49.000;21.242;2024-03-06T13:21:38;10.73;;;4.32;;
57573;SDS011;68988;49.000;21.242;2024-03-06T13:24:04;5.50;;;4.35;;
57573;SDS011;68988;49.000;21.242;2024-03-06T13:26:29;6.85;;;4.18;;
57573;SDS011;68988;49.000;21.242;2024-03-06T13:28:54;7.82;;;4.13;;
57573;SDS011;68988;49.000;21.242;2024-03-06T13:31:20;8.20;;;4.50;;
57573;SDS011;68988;49.000;21.242;2024-03-06T13:33:49;10.68;;;3.88;;
57573;SDS011;68988;49.000;21.242;2024-03-06T13:36:14;4.82;;;3.58;;
57573;SDS011;68988;49.000;21.242;2024-03-06T13:38:40;4.53;;;3.63;;
57573;SDS011;68988;49.000;21.242;2024-03-06T13:41:06;6.72;;;4.43;;
57573;SDS011;68988;49.000;21.242;2024-03-06T13:43:31;6.07;;;3.90;;
57573;SDS011;68988;49.000;21.242;2024-03-06T13:45:57;8.23;;;4.00;;
57573;SDS011;68988;49.000;21.242;2024-03-06T13:48:23;7.63;;;4.47;;
57573;SDS011;68988;49.000;21.242;2024-03-06T13:50:48;9.05;;;4.32;;
57573;SDS011;68988;49.000;21.242;2024-03-06T13:53:14;6.93;;;3.83;;
57573;SDS011;68988;49.000;21.242;2024-03-06T13:55:40;20.77;;;4.60;;
57573;SDS011;68988;49.000;21.242;2024-03-06T13:58:06;23.55;;;5.30;;
57573;SDS011;68988;49.000;21.242;2024-03-06T14:00:32;21.20;;;4.75;;
57573;SDS011;68988;49.000;21.242;2024-03-06T14:02:59;15.27;;;4.82;;
57573;SDS011;68988;49.000;21.242;2024-03-06T14:05:24;26.42;;;5.57;;
57573;SDS011;68988;49.000;21.242;2024-03-06T14:07:50;17.23;;;5.10;;
57573;SDS011;68988;49.000;21.242;2024-03-06T14:10:16;20.60;;;4.57;;
57573;SDS011;68988;49.000;21.242;2024-03-06T14:12:44;21.05;;;4.43;;
57573;SDS011;68988;49.000;21.242;2024-03-06T14:15:09;13.13;;;5.10;;
57573;SDS011;68988;49.000;21.242;2024-03-06T14:17:38;18.05;;;4.78;;
57573;SDS011;68988;49.000;21.242;2024-03-06T14:20:03;18.23;;;5.60;;
57573;SDS011;68988;49.000;21.242;2024-03-06T14:22:29;26.35;;;5.43;;
57573;SDS011;68988;49.000;21.242;2024-03-06T14:24:55;21.98;;;5.47;;
57573;SDS011;68988;49.000;21.242;2024-03-06T14:27:20;13.93;;;4.65;;
57573;SDS011;68988;49.000;21.242;2024-03-06T14:29:46;24.15;;;5.47;;
57573;SDS011;68988;49.000;21.242;2024-03-06T14:32:11;19.83;;;5.28;;
57573;SDS011;68988;49.000;21.242;2024-03-06T14:34:36;12.00;;;4.60;;
57573;SDS011;68988;49.000;21.242;2024-03-06T14:37:02;14.20;;;5.40;;